createdAt,value
2018-06-07T00:01:25.010Z,71.40
2018-06-07T00:03:53.342Z,71.30
2018-06-07T00:06:21.656Z,71.30
2018-06-07T00:08:50.008Z,71.40
2018-06-07T00:11:18.450Z,71.50
2018-06-07T00:13:46.789Z,71.60
2018-06-07T00:16:15.120Z,71.50
2018-06-07T00:18:43.424Z,71.70
2018-06-07T00:21:11.774Z,71.80
2018-06-07T00:23:40.097Z,71.90
2018-06-07T00:26:08.440Z,72.00
2018-06-07T00:28:36.845Z,72.00
2018-06-07T00:31:05.180Z,72.20
2018-06-07T00:33:33.496Z,72.40
2018-06-07T00:36:01.827Z,72.50
2018-06-07T00:38:30.141Z,72.60
2018-06-07T00:40:58.476Z,72.80
2018-06-07T00:43:26.838Z,72.90
2018-06-07T00:45:55.178Z,73.00
2018-06-07T00:48:23.510Z,73.10
2018-06-07T00:50:51.845Z,73.10
2018-06-07T00:53:20.180Z,73.10
2018-06-07T00:55:48.509Z,73.00
2018-06-07T00:58:16.852Z,73.20
2018-06-07T01:00:45.184Z,73.40
2018-06-07T01:03:13.537Z,73.80
2018-06-07T01:05:41.897Z,73.90
2018-06-07T01:08:10.269Z,74.40
2018-06-07T01:10:38.577Z,74.10
2018-06-07T01:13:07.124Z,74.20
2018-06-07T01:15:35.433Z,74.50
2018-06-07T01:18:03.827Z,74.70
2018-06-07T01:20:32.140Z,74.60
2018-06-07T01:23:00.557Z,74.40
2018-06-07T01:25:28.998Z,74.60
2018-06-07T01:27:57.313Z,74.70
2018-06-07T01:30:31.779Z,75.20
2018-06-07T01:33:26.968Z,75.80
2018-06-07T01:35:57.769Z,76.20
2018-06-07T01:38:37.265Z,76.90
2018-06-07T01:41:05.633Z,76.90
2018-06-07T01:43:33.992Z,76.80
2018-06-07T01:46:02.493Z,76.60
2018-06-07T01:48:30.813Z,76.90
2018-06-07T01:50:59.146Z,77.40
2018-06-07T01:53:27.464Z,78.10
2018-06-07T01:55:55.830Z,78.50
2018-06-07T01:58:24.401Z,78.90
2018-06-07T02:00:52.742Z,79.00
2018-06-07T02:03:21.048Z,78.90
2018-06-07T02:05:49.388Z,79.00
2018-06-07T02:08:17.708Z,79.00
2018-06-07T02:10:46.028Z,78.80
2018-06-07T02:13:14.357Z,79.10
2018-06-07T02:15:42.680Z,79.40
2018-06-07T02:18:11.024Z,79.70
2018-06-07T02:20:39.357Z,79.80
2018-06-07T02:23:07.705Z,80.00
2018-06-07T02:25:36.057Z,80.30
2018-06-07T02:28:04.398Z,80.30
2018-06-07T02:30:32.740Z,80.40
2018-06-07T02:33:01.089Z,80.10
2018-06-07T02:35:29.412Z,80.10
2018-06-07T02:37:57.756Z,80.10
2018-06-07T02:40:26.088Z,79.90
2018-06-07T02:42:54.425Z,79.80
2018-06-07T02:45:22.772Z,79.70
2018-06-07T02:47:51.116Z,80.00
2018-06-07T02:50:19.428Z,79.90
2018-06-07T02:52:47.732Z,79.80
2018-06-07T02:55:16.057Z,79.70
2018-06-07T02:57:44.372Z,79.30
2018-06-07T03:00:12.750Z,79.60
2018-06-07T03:02:41.081Z,78.90
2018-06-07T03:05:09.427Z,78.60
2018-06-07T03:07:37.747Z,78.60
2018-06-07T03:10:06.137Z,78.20
2018-06-07T03:12:34.457Z,78.30
2018-06-07T03:15:02.802Z,78.30
2018-06-07T03:17:31.112Z,77.70
2018-06-07T03:19:59.459Z,77.90
2018-06-07T03:22:27.791Z,77.90
2018-06-07T03:24:56.112Z,77.90
2018-06-07T03:27:24.529Z,78.10
2018-06-07T03:29:52.847Z,78.20
2018-06-07T03:32:21.173Z,78.40
2018-06-07T03:34:49.501Z,78.40
2018-06-07T03:37:17.829Z,78.90
2018-06-07T03:39:46.136Z,78.90
2018-06-07T03:42:14.478Z,79.30
2018-06-07T03:44:42.841Z,79.00
2018-06-07T03:47:11.175Z,79.80
2018-06-07T03:49:39.484Z,80.60
2018-06-07T03:52:07.846Z,80.50
2018-06-07T03:54:36.164Z,80.60
2018-06-07T03:57:05.053Z,80.80
2018-06-07T03:59:33.407Z,80.70
2018-06-07T04:02:02.345Z,81.00
2018-06-07T04:04:30.664Z,80.60
2018-06-07T04:06:59.006Z,81.00
2018-06-07T04:09:27.352Z,81.50
2018-06-07T04:11:55.685Z,81.70
2018-06-07T04:14:24.008Z,81.80
2018-06-07T04:16:52.313Z,82.30
2018-06-07T04:19:20.650Z,82.50
2018-06-07T04:21:48.968Z,82.90
2018-06-07T04:24:17.302Z,82.60
2018-06-07T04:26:45.617Z,82.50
2018-06-07T04:29:14.030Z,82.30
2018-06-07T04:31:42.374Z,82.50
2018-06-07T04:34:10.701Z,82.60
2018-06-07T04:36:39.008Z,82.60
2018-06-07T04:39:07.729Z,83.20
2018-06-07T04:41:36.057Z,83.30
2018-06-07T04:44:04.409Z,83.20
2018-06-07T04:46:32.746Z,83.20
2018-06-07T04:49:01.058Z,83.10
2018-06-07T04:51:29.401Z,82.90
2018-06-07T04:53:57.722Z,83.90
2018-06-07T04:56:26.062Z,83.70
2018-06-07T04:58:54.375Z,83.80
2018-06-07T05:01:22.701Z,83.70
2018-06-07T05:03:51.024Z,82.90
2018-06-07T05:06:19.365Z,82.70
2018-06-07T05:08:47.686Z,82.70
2018-06-07T05:11:16.443Z,82.00
2018-06-07T05:13:44.757Z,81.80
2018-06-07T05:16:13.098Z,79.90
2018-06-07T05:18:41.415Z,78.40
2018-06-07T05:21:09.775Z,78.60
2018-06-07T05:23:38.104Z,77.40
2018-06-07T05:26:06.440Z,76.80
2018-06-07T05:28:34.806Z,76.60
2018-06-07T05:31:03.147Z,76.50
2018-06-07T05:33:31.452Z,75.70
2018-06-07T05:35:59.787Z,75.00
2018-06-07T05:38:28.111Z,74.80
2018-06-07T05:40:56.506Z,75.20
2018-06-07T05:43:24.817Z,74.70
2018-06-07T05:45:53.163Z,75.20
2018-06-07T05:48:21.485Z,74.60
2018-06-07T05:50:49.833Z,74.60
2018-06-07T05:53:18.146Z,74.00
2018-06-07T05:58:14.524Z,74.00
2018-06-07T06:00:42.868Z,73.80
2018-06-07T06:03:11.217Z,74.00
2018-06-07T06:05:39.572Z,73.10
2018-06-07T06:08:07.842Z,72.90
2018-06-07T06:10:36.189Z,73.00
2018-06-07T06:13:04.537Z,72.80
2018-06-07T06:15:32.850Z,71.90
2018-06-07T06:18:01.181Z,71.60
2018-06-07T06:20:29.485Z,70.90
2018-06-07T06:22:57.832Z,71.50
2018-06-07T06:25:26.137Z,71.20
2018-06-07T06:27:54.488Z,71.30
2018-06-07T06:30:22.810Z,70.70
2018-06-07T06:32:51.142Z,71.40
2018-06-07T06:35:19.446Z,70.20
2018-06-07T06:38:52.438Z,70.10
2018-06-07T06:41:20.757Z,69.50
2018-06-07T06:43:49.114Z,68.90
2018-06-07T06:46:17.467Z,69.60
2018-06-07T06:48:45.779Z,69.00
2018-06-07T06:51:14.158Z,69.30
2018-06-07T06:53:42.623Z,69.70
2018-06-07T06:56:10.933Z,70.00
2018-06-07T06:58:39.275Z,70.50
2018-06-07T07:01:07.594Z,71.20
2018-06-07T07:03:35.935Z,71.70
2018-06-07T07:06:04.265Z,71.70
2018-06-07T07:08:32.591Z,70.30
2018-06-07T07:11:00.892Z,69.30
2018-06-07T07:13:29.221Z,69.00
2018-06-07T07:15:57.546Z,68.40
2018-06-07T07:20:53.933Z,67.80
2018-06-07T07:23:22.257Z,67.30
2018-06-07T07:25:50.662Z,67.60
2018-06-07T07:28:19.033Z,66.80
2018-06-07T07:30:47.348Z,67.10
2018-06-07T07:33:15.698Z,66.90
2018-06-07T07:35:44.038Z,66.90
2018-06-07T07:38:12.368Z,67.90
2018-06-07T07:40:40.698Z,66.10
2018-06-07T07:43:09.022Z,66.60
2018-06-07T07:45:37.366Z,67.10
2018-06-07T07:48:05.913Z,67.80
2018-06-07T07:50:34.224Z,67.40
2018-06-07T07:53:02.600Z,67.50
2018-06-07T07:55:30.925Z,67.70
2018-06-07T07:57:59.257Z,67.00
2018-06-07T08:00:27.570Z,66.60
2018-06-07T08:02:55.910Z,66.10
2018-06-07T08:05:24.221Z,66.40
2018-06-07T08:07:52.554Z,65.50
2018-06-07T08:10:20.861Z,65.60
2018-06-07T08:12:49.198Z,66.20
2018-06-07T08:15:17.525Z,65.60
2018-06-07T08:17:45.858Z,65.90
2018-06-07T08:20:14.160Z,66.10
2018-06-07T08:22:42.497Z,66.30
2018-06-07T08:25:10.810Z,67.40
2018-06-07T08:27:39.125Z,65.20
2018-06-07T08:32:35.504Z,65.50
2018-06-07T08:35:03.916Z,65.90
2018-06-07T08:37:32.270Z,64.70
2018-06-07T08:40:00.609Z,64.90
2018-06-07T08:42:28.947Z,64.80
2018-06-07T08:44:57.284Z,64.60
2018-06-07T08:47:25.600Z,65.40
2018-06-07T08:49:53.936Z,64.70
2018-06-07T08:52:22.260Z,65.50
2018-06-07T08:54:56.052Z,64.20
2018-06-07T08:57:24.365Z,64.40
2018-06-07T08:59:52.688Z,64.30
2018-06-07T09:02:21.008Z,64.40
2018-06-07T09:04:49.378Z,63.40
2018-06-07T09:07:17.689Z,64.20
2018-06-07T09:12:14.064Z,64.90
2018-06-07T09:14:42.400Z,65.20
2018-06-07T09:17:10.713Z,63.80
2018-06-07T09:19:39.046Z,63.30
2018-06-07T09:22:07.375Z,64.30
2018-06-07T09:24:35.730Z,64.50
2018-06-07T09:27:04.085Z,65.70
2018-06-07T09:29:32.432Z,64.20
2018-06-07T09:32:01.682Z,64.40
2018-06-07T09:34:30.050Z,64.90
2018-06-07T09:36:58.387Z,63.10
2018-06-07T09:39:26.734Z,62.60
2018-06-07T09:41:55.081Z,62.60
2018-06-07T09:44:23.455Z,63.20
2018-06-07T09:46:51.805Z,62.70
2018-06-07T09:49:20.140Z,63.10
2018-06-07T09:51:48.469Z,63.40
2018-06-07T09:54:16.800Z,63.60
2018-06-07T09:56:45.130Z,64.20
2018-06-07T09:59:13.477Z,64.20
2018-06-07T10:01:41.813Z,62.70
2018-06-07T10:04:10.161Z,62.60
2018-06-07T10:06:38.508Z,63.10
2018-06-07T10:09:07.461Z,63.00
2018-06-07T10:11:35.856Z,62.70
2018-06-07T10:14:04.280Z,62.60
2018-06-07T10:16:32.717Z,62.80
2018-06-07T10:19:01.786Z,62.90
2018-06-07T10:21:30.151Z,63.00
2018-06-07T10:23:58.536Z,62.20
2018-06-07T10:26:26.869Z,62.20
2018-06-07T10:28:55.208Z,60.70
2018-06-07T10:31:23.573Z,60.90
2018-06-07T10:33:51.900Z,60.50
2018-06-07T10:36:20.246Z,61.50
2018-06-07T10:38:48.586Z,61.90
2018-06-07T10:41:17.022Z,61.00
2018-06-07T10:43:45.535Z,61.90
2018-06-07T10:46:13.869Z,60.60
2018-06-07T10:48:42.444Z,60.60
2018-06-07T10:51:10.846Z,60.60
2018-06-07T10:53:39.152Z,61.70
2018-06-07T10:56:07.490Z,61.60
2018-06-07T10:58:35.820Z,61.00
2018-06-07T11:01:04.171Z,61.30
2018-06-07T11:03:32.497Z,60.40
2018-06-07T11:06:00.841Z,59.90
2018-06-07T11:08:29.234Z,59.90
2018-06-07T11:10:57.569Z,60.70
2018-06-07T11:13:25.903Z,60.30
2018-06-07T11:15:54.243Z,59.90
2018-06-07T11:18:22.565Z,60.40
2018-06-07T11:20:50.912Z,60.10
2018-06-07T11:23:19.241Z,59.30
2018-06-07T11:25:47.594Z,59.70
2018-06-07T11:28:15.920Z,60.00
2018-06-07T11:30:44.249Z,58.70
2018-06-07T11:33:12.608Z,58.60
2018-06-07T11:35:40.950Z,58.20
2018-06-07T11:38:09.260Z,60.40
2018-06-07T11:40:37.597Z,61.00
2018-06-07T11:43:05.933Z,60.40
2018-06-07T11:45:34.270Z,61.10
2018-06-07T11:48:02.597Z,62.40
2018-06-07T11:50:30.908Z,61.80
2018-06-07T11:52:59.273Z,60.80
2018-06-07T11:55:27.580Z,60.30
2018-06-07T11:57:55.922Z,60.60
2018-06-07T12:00:24.254Z,61.20
2018-06-07T12:02:52.668Z,60.10
2018-06-07T12:05:20.972Z,59.90
2018-06-07T12:07:49.320Z,60.60
2018-06-07T12:10:17.645Z,59.60
2018-06-07T12:12:45.981Z,59.20
2018-06-07T12:17:42.499Z,59.10
2018-06-07T12:20:10.952Z,60.30
2018-06-07T12:22:39.292Z,61.00
2018-06-07T12:25:07.682Z,60.90
2018-06-07T12:27:36.109Z,62.10
2018-06-07T12:30:04.701Z,61.90
2018-06-07T12:32:33.057Z,60.80
2018-06-07T12:35:01.380Z,60.00
2018-06-07T12:37:29.734Z,60.40
2018-06-07T12:39:58.129Z,61.20
2018-06-07T12:42:26.433Z,61.70
2018-06-07T12:44:54.772Z,60.70
2018-06-07T12:47:23.109Z,62.10
2018-06-07T12:49:51.430Z,61.20
2018-06-07T12:52:19.769Z,61.00
2018-06-07T12:54:48.105Z,61.80
2018-06-07T12:57:16.440Z,60.90
2018-06-07T12:59:44.762Z,60.90
2018-06-07T13:02:13.113Z,61.10
2018-06-07T13:04:41.485Z,61.30
2018-06-07T13:07:09.817Z,62.50
2018-06-07T13:09:38.141Z,62.30
2018-06-07T13:12:06.529Z,60.60
2018-06-07T13:14:34.936Z,60.80
2018-06-07T13:17:03.311Z,60.90
2018-06-07T13:19:31.664Z,61.80
2018-06-07T13:21:59.993Z,61.60
2018-06-07T13:24:28.341Z,61.80
2018-06-07T13:26:56.730Z,62.10
2018-06-07T13:29:25.082Z,61.30
2018-06-07T13:31:53.393Z,61.10
2018-06-07T13:34:21.736Z,62.00
2018-06-07T13:36:50.057Z,62.00
2018-06-07T13:39:18.395Z,61.80
2018-06-07T13:41:46.726Z,60.90
2018-06-07T13:44:15.074Z,60.50
2018-06-07T13:46:43.413Z,61.20
2018-06-07T13:49:11.764Z,61.70
2018-06-07T13:51:40.093Z,60.70
2018-06-07T13:54:08.474Z,61.40
2018-06-07T13:56:36.789Z,60.60
2018-06-07T13:59:05.174Z,60.80
2018-06-07T14:01:33.489Z,60.80
2018-06-07T14:04:01.841Z,60.70
2018-06-07T14:06:30.193Z,59.90
2018-06-07T14:08:58.559Z,60.00
2018-06-07T14:11:26.926Z,59.70
2018-06-07T14:13:55.304Z,59.60
2018-06-07T14:16:23.632Z,60.10
2018-06-07T14:18:51.967Z,59.30
2018-06-07T14:21:20.301Z,59.10
2018-06-07T14:23:48.918Z,59.00
2018-06-07T14:26:17.494Z,59.70
2018-06-07T14:28:45.828Z,58.50
2018-06-07T14:31:14.179Z,58.30
2018-06-07T14:33:42.528Z,57.90
2018-06-07T14:36:10.854Z,58.40
2018-06-07T14:38:39.190Z,58.70
2018-06-07T14:41:07.508Z,59.20
2018-06-07T14:43:35.849Z,59.40
2018-06-07T14:46:04.197Z,59.60
2018-06-07T14:48:32.713Z,57.60
2018-06-07T14:51:01.046Z,56.40
2018-06-07T14:53:29.440Z,53.90
2018-06-07T14:55:57.768Z,53.30
2018-06-07T14:58:26.077Z,54.80
2018-06-07T15:00:54.414Z,54.50
2018-06-07T15:03:22.732Z,55.70
2018-06-07T15:05:51.057Z,57.70
2018-06-07T15:08:19.370Z,60.40
2018-06-07T15:10:47.797Z,66.20
2018-06-07T15:13:16.108Z,71.10
2018-06-07T15:15:44.450Z,75.80
2018-06-07T15:18:12.790Z,80.50
2018-06-07T15:20:41.126Z,80.90
2018-06-07T15:23:09.437Z,81.10
2018-06-07T15:25:37.808Z,82.60
2018-06-07T15:28:06.143Z,82.50
2018-06-07T15:30:34.488Z,83.60
2018-06-07T15:33:02.821Z,85.10
2018-06-07T15:35:31.355Z,85.60
2018-06-07T15:37:59.694Z,86.80
2018-06-07T15:40:28.058Z,85.80
2018-06-07T15:42:56.386Z,84.90
2018-06-07T15:45:24.763Z,85.40
2018-06-07T15:47:53.086Z,85.70
2018-06-07T15:50:21.421Z,86.30
2018-06-07T15:52:49.759Z,86.80
2018-06-07T15:55:18.102Z,86.40
2018-06-07T15:57:46.452Z,85.50
2018-06-07T16:00:14.801Z,85.40
2018-06-07T16:02:43.126Z,84.90
2018-06-07T16:05:11.467Z,86.90
2018-06-07T16:10:42.688Z,90.00
2018-06-07T16:13:11.031Z,89.90
2018-06-07T16:15:39.384Z,89.40
2018-06-07T16:18:07.763Z,91.70
2018-06-07T16:20:36.309Z,89.90
2018-06-07T16:23:04.672Z,86.90
2018-06-07T16:25:33.049Z,86.10
2018-06-07T16:28:01.412Z,88.50
2018-06-07T16:30:29.829Z,88.10
2018-06-07T16:32:58.143Z,86.90
2018-06-07T16:35:26.557Z,86.10
2018-06-07T16:37:54.914Z,86.80
2018-06-07T16:40:23.323Z,86.50
2018-06-07T16:42:51.677Z,88.20
2018-06-07T16:45:20.020Z,87.70
2018-06-07T16:47:48.356Z,87.20
2018-06-07T16:50:16.683Z,87.80
2018-06-07T16:52:45.034Z,88.50
2018-06-07T16:55:13.360Z,88.20
2018-06-07T16:57:41.731Z,88.50
2018-06-07T17:00:10.556Z,89.10
2018-06-07T17:02:38.890Z,88.00
2018-06-07T17:05:07.210Z,89.60
2018-06-07T17:07:35.576Z,90.30
2018-06-07T17:10:03.965Z,91.20
2018-06-07T17:12:32.306Z,90.20
2018-06-07T17:15:00.624Z,91.40
2018-06-07T17:17:28.969Z,90.80
2018-06-07T17:19:57.295Z,92.40
2018-06-07T17:22:25.644Z,92.10
2018-06-07T17:24:53.975Z,92.80
2018-06-07T17:27:22.318Z,93.40
2018-06-07T17:29:50.646Z,92.00
2018-06-07T17:32:19.003Z,92.80
2018-06-07T17:34:47.331Z,91.40
2018-06-07T17:37:15.663Z,90.80
2018-06-07T17:39:43.991Z,90.20
2018-06-07T17:42:12.335Z,91.40
2018-06-07T17:44:40.703Z,92.20
2018-06-07T17:49:37.155Z,91.40
2018-06-07T17:52:05.549Z,91.20
2018-06-07T17:54:33.899Z,92.10
2018-06-07T17:57:02.271Z,91.60
2018-06-07T17:59:30.618Z,91.50
2018-06-07T18:01:58.999Z,92.00
2018-06-07T18:04:27.391Z,93.20
2018-06-07T18:06:55.750Z,94.10
2018-06-07T18:09:24.136Z,94.60
2018-06-07T18:11:52.603Z,94.40
2018-06-07T18:14:21.004Z,95.10
2018-06-07T18:16:49.347Z,94.30
2018-06-07T18:19:17.806Z,93.80
2018-06-07T18:21:46.127Z,93.40
2018-06-07T18:24:14.483Z,93.60
2018-06-07T18:26:42.827Z,93.70
2018-06-07T18:29:11.240Z,93.60
2018-06-07T18:31:39.589Z,93.20
2018-06-07T18:34:07.964Z,92.70
2018-06-07T18:36:36.329Z,92.40
2018-06-07T18:39:07.618Z,93.10
2018-06-07T18:41:35.971Z,92.80
2018-06-07T18:44:04.619Z,93.20
2018-06-07T18:46:32.995Z,94.10
2018-06-07T18:49:01.392Z,93.50
2018-06-07T18:51:29.671Z,94.10
2018-06-07T18:53:58.039Z,93.80
2018-06-07T18:56:26.372Z,93.90
2018-06-07T18:58:54.751Z,94.40
2018-06-07T19:01:23.114Z,93.50
2018-06-07T19:03:51.523Z,93.50
2018-06-07T19:06:19.902Z,93.10
2018-06-07T19:08:53.687Z,92.70
2018-06-07T19:11:22.009Z,93.10
2018-06-07T19:13:55.666Z,93.50
2018-06-07T19:16:24.031Z,93.20
2018-06-07T19:18:57.863Z,93.90
2018-06-07T19:21:26.196Z,94.00
2018-06-07T19:23:54.614Z,93.70
2018-06-07T19:26:28.433Z,93.50
2018-06-07T19:28:56.786Z,93.20
2018-06-07T19:31:25.107Z,93.60
2018-06-07T19:33:58.768Z,93.10
2018-06-07T19:36:27.159Z,92.80
2018-06-07T19:41:34.429Z,92.90
2018-06-07T19:44:02.814Z,93.00
2018-06-07T19:46:31.171Z,92.40
2018-06-07T19:48:59.532Z,92.50
2018-06-07T19:51:27.926Z,93.40
2018-06-07T19:53:56.403Z,91.90
2018-06-07T19:56:24.783Z,93.50
2018-06-07T19:58:53.149Z,94.50
2018-06-07T20:01:21.591Z,93.60
2018-06-07T20:03:49.996Z,92.80
2018-06-07T20:06:18.343Z,91.70
2018-06-07T20:08:46.766Z,91.80
2018-06-07T20:11:15.076Z,92.30
2018-06-07T20:13:43.417Z,93.20
2018-06-07T20:16:11.945Z,94.10
2018-06-07T20:18:40.291Z,94.20
2018-06-07T20:21:08.650Z,95.80
2018-06-07T20:23:36.999Z,95.00
2018-06-07T20:26:05.363Z,94.70
2018-06-07T20:28:33.728Z,93.50
2018-06-07T20:31:02.091Z,94.10
2018-06-07T20:33:30.438Z,94.30
2018-06-07T20:35:58.835Z,93.30
2018-06-07T20:38:27.210Z,93.70
2018-06-07T20:40:55.564Z,93.90
2018-06-07T20:43:23.935Z,94.60
2018-06-07T20:45:52.468Z,94.90
2018-06-07T20:48:20.747Z,94.60
2018-06-07T20:50:49.108Z,94.50
2018-06-07T20:53:17.431Z,95.40
2018-06-07T20:55:45.775Z,94.90
2018-06-07T20:58:14.098Z,95.40
2018-06-07T21:00:42.444Z,95.10
2018-06-07T21:03:10.767Z,95.30
2018-06-07T21:05:39.111Z,95.30
2018-06-07T21:08:07.443Z,95.30
2018-06-07T21:10:35.787Z,95.60
2018-06-07T21:13:04.120Z,96.00
2018-06-07T21:15:32.495Z,95.40
2018-06-07T21:18:00.815Z,96.20
2018-06-07T21:20:29.167Z,95.50
2018-06-07T21:22:57.495Z,96.90
2018-06-07T21:25:25.863Z,96.20
2018-06-07T21:27:54.207Z,96.10
2018-06-07T21:30:22.531Z,96.70
2018-06-07T21:32:50.870Z,96.30
2018-06-07T21:35:19.274Z,96.80
2018-06-07T21:37:47.571Z,96.60
2018-06-07T21:40:15.895Z,95.80
2018-06-07T21:42:44.234Z,96.20
2018-06-07T21:45:12.587Z,95.80
2018-06-07T21:47:40.930Z,96.00
2018-06-07T21:50:09.268Z,95.30
2018-06-07T21:52:37.608Z,95.20
2018-06-07T21:55:05.935Z,95.10
2018-06-07T21:57:34.296Z,95.20
2018-06-07T22:00:02.647Z,96.00
2018-06-07T22:02:30.995Z,95.50
2018-06-07T22:04:59.318Z,95.90
2018-06-07T22:07:27.647Z,95.90
2018-06-07T22:09:55.983Z,96.20
2018-06-07T22:12:24.332Z,96.20
2018-06-07T22:14:52.660Z,96.40
2018-06-07T22:17:21.032Z,96.20
2018-06-07T22:19:49.397Z,95.80
2018-06-07T22:22:17.767Z,96.30
2018-06-07T22:24:46.103Z,95.80
2018-06-07T22:27:14.432Z,96.20
2018-06-07T22:29:42.782Z,95.90
2018-06-07T22:32:11.111Z,96.10
2018-06-07T22:34:39.451Z,96.20
2018-06-07T22:37:07.778Z,96.40
2018-06-07T22:39:36.119Z,95.60
2018-06-07T22:42:04.443Z,95.40
2018-06-07T22:44:32.807Z,95.60
2018-06-07T22:47:01.131Z,95.90
2018-06-07T22:49:29.467Z,95.70
2018-06-07T22:51:57.800Z,95.70
2018-06-07T22:54:26.146Z,95.70
2018-06-07T22:56:54.474Z,95.60
2018-06-07T22:59:22.818Z,95.40
2018-06-07T23:01:51.148Z,95.00
2018-06-07T23:04:19.551Z,95.30
2018-06-07T23:06:47.884Z,95.30
2018-06-07T23:09:16.227Z,95.40
2018-06-07T23:11:44.556Z,95.30
2018-06-07T23:14:12.895Z,96.00
2018-06-07T23:16:41.228Z,95.50
2018-06-07T23:19:09.571Z,95.40
2018-06-07T23:21:37.891Z,95.70
2018-06-07T23:24:06.271Z,95.20
2018-06-07T23:26:34.601Z,95.70
2018-06-07T23:29:02.939Z,96.00
2018-06-07T23:31:31.267Z,96.50
2018-06-07T23:33:59.611Z,96.40
2018-06-07T23:36:27.955Z,95.80
2018-06-07T23:38:57.114Z,95.60
2018-06-07T23:41:25.462Z,96.40
2018-06-07T23:43:53.826Z,96.00
2018-06-07T23:46:22.202Z,96.00
2018-06-07T23:48:50.523Z,95.70
2018-06-07T23:51:18.871Z,95.00
2018-06-07T23:53:47.199Z,95.30
2018-06-07T23:56:15.550Z,95.00
2018-06-07T23:58:43.875Z,94.80
